Time;durP1;ratioP1;P1;durP2;ratioP2;P2;SDS_P1;SDS_P2;PMS_P1;PMS_P2;Temp;Humidity;BMP_temperature;BMP_pressure;BME280_temperature;BME280_humidity;BME280_pressure;Samples;Min_cycle;Max_cycle;Signal;HPM_P1;HPM_P2
2022/11/14 00:02:23;;;;;;;;;;;;;;;;;;4976828;28;19968;-62
2022/11/14 00:04:51;;;;;;;;;;;;;;;;;;4978092;28;19921;-62
2022/11/14 00:07:16;;;;;;;;;;;;;;;;;;4977579;28;19941;-63
2022/11/14 00:09:44;;;;;;;;;;;;;;;;;;4967064;28;20353;-66
2022/11/14 00:12:11;;;;;;;;;;;;;;;;;;4960104;28;20601;-66
2022/11/14 00:14:40;;;;;;;;;;;;;;;;;;4979551;28;20304;-65
2022/11/14 00:17:08;;;;;;;;;;;;;;;;;;4976160;28;19963;-68
2022/11/14 00:19:34;;;;;;;;;;;;;;;;;;4979052;28;19918;-65
2022/11/14 00:22:02;;;;;;;;;;;;;;;;;;4980224;28;19940;-63
2022/11/14 00:24:27;;;;;;;;;;;;;;;;;;4976414;28;20486;-65
2022/11/14 00:26:52;;;;;;;;;;;;;;;;;;4961207;28;19924;-64
2022/11/14 00:29:18;;;;;;;;;;;;;;;;;;4975532;28;20037;-66
2022/11/14 00:31:43;;;;;;;;;;;;;;;;;;4957762;28;19917;-63
2022/11/14 00:34:11;;;;;;;;;;;;;;;;;;4974229;28;20377;-65
2022/11/14 00:36:36;;;;;;;;;;;;;;;;;;4961811;28;19928;-63
2022/11/14 00:39:01;;;;;;;;;;;;;;;;;;4957265;28;20353;-63
2022/11/14 00:41:26;;;;;;;;;;;;;;;;;;4959769;28;19918;-67
2022/11/14 00:43:52;;;;;;;;;;;;;;;;;;4977177;28;19929;-63
2022/11/14 00:46:17;;;;;;;;;;;;;;;;;;4963301;28;20403;-62
2022/11/14 00:48:42;;;;;;;;;;;;;;;;;;4959937;28;19921;-65
2022/11/14 00:51:08;;;;;;;;;;;;;;;;;;4959798;28;20071;-63
2022/11/14 00:53:33;;;;;;;;;;;;;;;;;;4977081;28;19922;-69
2022/11/14 00:56:01;;;;;;;;;;;;;;;;;;4963232;28;20282;-64
2022/11/14 00:58:26;;;;;;;;;;;;;;;;;;4961747;28;20327;-64
2022/11/14 01:00:52;;;;;;;;;;;;;;;;;;4979855;28;19922;-66
2022/11/14 01:03:20;;;;;;;;;;;;;;;;;;4976223;28;20365;-64
2022/11/14 01:05:45;;;;;;;;;;;;;;;;;;4961655;28;19974;-68
2022/11/14 01:08:10;;;;;;;;;;;;;;;;;;4977367;28;19917;-64
2022/11/14 01:10:38;;;;;;;;;;;;;;;;;;4961141;28;19925;-64
2022/11/14 01:13:11;;;;;;;;;;;;;;;;;;4959914;28;19926;-64
2022/11/14 01:15:37;;;;;;;;;;;;;;;;;;4978357;28;20032;-67
2022/11/14 01:18:03;;;;;;;;;;;;;;;;;;4961786;28;19928;-66
2022/11/14 01:20:30;;;;;;;;;;;;;;;;;;4963523;28;20276;-63
2022/11/14 01:22:56;;;;;;;;;;;;;;;;;;4963031;28;19934;-69
2022/11/14 01:25:22;;;;;;;;;;;;;;;;;;4982504;28;20371;-64
2022/11/14 01:27:50;;;;;;;;;;;;;;;;;;4962899;28;19921;-67
2022/11/14 01:30:18;;;;;;;;;;;;;;;;;;4981768;28;20266;-66
2022/11/14 01:32:43;;;;;;;;;;;;;;;;;;4952436;28;19928;-65
2022/11/14 01:35:14;;;;;;;;;;;;;;;;;;4978383;28;19957;-64
2022/11/14 01:37:40;;;;;;;;;;;;;;;;;;4965697;28;20273;-64
2022/11/14 01:40:06;;;;;;;;;;;;;;;;;;4980400;28;19928;-69
2022/11/14 01:42:31;;;;;;;;;;;;;;;;;;4954553;28;20297;-69
2022/11/14 01:44:57;;;;;;;;;;;;;;;;;;4980920;28;20061;-64
2022/11/14 01:47:24;;;;;;;;;;;;;;;;;;4981015;28;19918;-64
2022/11/14 01:49:52;;;;;;;;;;;;;;;;;;4968775;28;19918;-68
2022/11/14 01:52:18;;;;;;;;;;;;;;;;;;4977869;28;19991;-66
2022/11/14 01:54:48;;;;;;;;;;;;;;;;;;4982154;28;19917;-63
2022/11/14 01:57:14;;;;;;;;;;;;;;;;;;4968848;28;19923;-68
2022/11/14 01:59:41;;;;;;;;;;;;;;;;;;4979193;28;20424;-65
2022/11/14 02:02:09;;;;;;;;;;;;;;;;;;4981030;28;19928;-64
2022/11/14 02:04:35;;;;;;;;;;;;;;;;;;4966379;28;19922;-64
2022/11/14 02:07:02;;;;;;;;;;;;;;;;;;4980170;28;19949;-66
2022/11/14 02:09:27;;;;;;;;;;;;;;;;;;4963336;28;19924;-66
2022/11/14 02:11:53;;;;;;;;;;;;;;;;;;4981224;28;20629;-65
2022/11/14 02:14:19;;;;;;;;;;;;;;;;;;4980731;28;20015;-64
2022/11/14 02:16:44;;;;;;;;;;;;;;;;;;4981640;28;20003;-64
2022/11/14 02:19:09;;;;;;;;;;;;;;;;;;4962945;28;20518;-63
2022/11/14 02:21:35;;;;;;;;;;;;;;;;;;4977451;28;19926;-66
2022/11/14 02:24:02;;;;;;;;;;;;;;;;;;4966757;28;19932;-62
2022/11/14 02:26:28;;;;;;;;;;;;;;;;;;4979249;28;19997;-64
2022/11/14 02:28:56;;;;;;;;;;;;;;;;;;4980200;28;19956;-64
2022/11/14 02:31:24;;;;;;;;;;;;;;;;;;4969703;28;20054;-63
2022/11/14 02:33:51;;;;;;;;;;;;;;;;;;4978460;28;20530;-66
2022/11/14 02:36:19;;;;;;;;;;;;;;;;;;4955779;28;20518;-64
2022/11/14 02:38:47;;;;;;;;;;;;;;;;;;4980423;28;20345;-63
2022/11/14 02:41:12;;;;;;;;;;;;;;;;;;4970739;28;19925;-64
2022/11/14 02:43:40;;;;;;;;;;;;;;;;;;4960405;28;19937;-63
2022/11/14 02:46:08;;;;;;;;;;;;;;;;;;4981110;28;20012;-64
2022/11/14 02:48:33;;;;;;;;;;;;;;;;;;4960643;28;20308;-63
2022/11/14 02:50:58;;;;;;;;;;;;;;;;;;4966449;28;20039;-65
2022/11/14 02:53:26;;;;;;;;;;;;;;;;;;4967199;28;19929;-65
2022/11/14 02:55:51;;;;;;;;;;;;;;;;;;4966685;28;19924;-65
2022/11/14 02:58:16;;;;;;;;;;;;;;;;;;4960852;28;19921;-63
2022/11/14 03:00:44;;;;;;;;;;;;;;;;;;4980633;28;20028;-64
2022/11/14 03:03:10;;;;;;;;;;;;;;;;;;4976416;28;19947;-65
2022/11/14 03:05:35;;;;;;;;;;;;;;;;;;4978780;28;20012;-64
2022/11/14 03:08:01;;;;;;;;;;;;;;;;;;4961619;28;19918;-63
2022/11/14 03:10:26;;;;;;;;;;;;;;;;;;4977032;28;20412;-65
2022/11/14 03:12:52;;;;;;;;;;;;;;;;;;4980149;28;20004;-62
2022/11/14 03:15:18;;;;;;;;;;;;;;;;;;4980186;28;19937;-68
2022/11/14 03:17:43;;;;;;;;;;;;;;;;;;4962141;28;20154;-63
2022/11/14 03:23:27;;;;;;;;;;;;;;;;;;4978739;28;20605;-64
2022/11/14 03:25:55;;;;;;;;;;;;;;;;;;4962375;28;19933;-66
2022/11/14 03:28:23;;;;;;;;;;;;;;;;;;4966356;28;19973;-65
2022/11/14 03:30:48;;;;;;;;;;;;;;;;;;4980139;28;20015;-65
2022/11/14 03:33:19;;;;;;;;;;;;;;;;;;4978443;28;19987;-63
2022/11/14 03:35:48;;;;;;;;;;;;;;;;;;4978030;28;20743;-64
2022/11/14 03:38:30;;;;;;;;;;;;;;;;;;4900223;29;20045;-65
2022/11/14 03:40:58;;;;;;;;;;;;;;;;;;4903785;29;20430;-65
2022/11/14 03:43:26;;;;;;;;;;;;;;;;;;4885456;29;19985;-64
2022/11/14 03:45:51;;;;;;;;;;;;;;;;;;4885980;29;20947;-65
2022/11/14 03:48:16;;;;;;;;;;;;;;;;;;4877241;29;19955;-67
2022/11/14 03:50:42;;;;;;;;;;;;;;;;;;4888333;29;20451;-63
2022/11/14 03:53:07;;;;;;;;;;;;;;;;;;4886570;29;19971;-69
2022/11/14 03:55:32;;;;;;;;;;;;;;;;;;4884485;29;20268;-65
2022/11/14 03:58:00;;;;;;;;;;;;;;;;;;4902680;29;19959;-68
2022/11/14 04:00:27;;;;;;;;;;;;;;;;;;4886541;29;19953;-66
2022/11/14 04:02:55;;;;;;;;;;;;;;;;;;4871615;29;20207;-65
2022/11/14 04:05:20;;;;;;;;;;;;;;;;;;4883147;29;19934;-64
2022/11/14 04:07:48;;;;;;;;;;;;;;;;;;4887427;29;20033;-66
2022/11/14 04:10:15;;;;;;;;;;;;;;;;;;4947886;28;20377;-64
2022/11/14 04:12:43;;;;;;;;;;;;;;;;;;4976658;28;19934;-64
2022/11/14 04:15:08;;;;;;;;;;;;;;;;;;4969530;28;19947;-65
2022/11/14 04:17:37;;;;;;;;;;;;;;;;;;4963929;28;20013;-66
2022/11/14 04:20:02;;;;;;;;;;;;;;;;;;4978316;28;20468;-64
2022/11/14 04:22:30;;;;;;;;;;;;;;;;;;4980065;28;19920;-68
2022/11/14 04:24:56;;;;;;;;;;;;;;;;;;4959252;28;19981;-68
2022/11/14 04:27:21;;;;;;;;;;;;;;;;;;4976196;28;20021;-64
2022/11/14 04:29:52;;;;;;;;;;;;;;;;;;4977446;28;19956;-64
2022/11/14 04:32:19;;;;;;;;;;;;;;;;;;4965649;28;19952;-65
2022/11/14 04:34:47;;;;;;;;;;;;;;;;;;4970467;28;19925;-65
2022/11/14 04:37:16;;;;;;;;;;;;;;;;;;4978639;28;19928;-66
2022/11/14 04:39:41;;;;;;;;;;;;;;;;;;4964064;28;19921;-65
2022/11/14 04:42:06;;;;;;;;;;;;;;;;;;4960837;28;20518;-67
2022/11/14 04:44:32;;;;;;;;;;;;;;;;;;4962781;28;19929;-62
2022/11/14 04:46:57;;;;;;;;;;;;;;;;;;4961752;28;19922;-67
2022/11/14 04:49:22;;;;;;;;;;;;;;;;;;4977224;28;20346;-65
2022/11/14 04:51:48;;;;;;;;;;;;;;;;;;4976350;28;20905;-63
2022/11/14 04:54:15;;;;;;;;;;;;;;;;;;4981521;28;19921;-64
2022/11/14 04:56:43;;;;;;;;;;;;;;;;;;4981313;28;19926;-63
2022/11/14 04:59:08;;;;;;;;;;;;;;;;;;4979924;28;19998;-66
2022/11/14 05:01:35;;;;;;;;;;;;;;;;;;4984016;28;19918;-66
2022/11/14 05:04:00;;;;;;;;;;;;;;;;;;4979208;28;19932;-65
2022/11/14 05:06:26;;;;;;;;;;;;;;;;;;4964919;28;20350;-64
2022/11/14 05:08:51;;;;;;;;;;;;;;;;;;4952402;28;20444;-63
2022/11/14 05:11:19;;;;;;;;;;;;;;;;;;4968305;28;20400;-61
2022/11/14 05:13:44;;;;;;;;;;;;;;;;;;4981016;28;20405;-62
2022/11/14 05:16:13;;;;;;;;;;;;;;;;;;4983310;28;19977;-64
2022/11/14 05:18:38;;;;;;;;;;;;;;;;;;4963810;28;19917;-66
2022/11/14 05:21:06;;;;;;;;;;;;;;;;;;4980699;28;19928;-66
2022/11/14 05:23:34;;;;;;;;;;;;;;;;;;4970546;28;19936;-66
2022/11/14 05:25:59;;;;;;;;;;;;;;;;;;4981443;28;20346;-66
2022/11/14 05:28:25;;;;;;;;;;;;;;;;;;4981579;28;20261;-64
2022/11/14 05:30:50;;;;;;;;;;;;;;;;;;4980965;28;19925;-63
2022/11/14 05:33:16;;;;;;;;;;;;;;;;;;4955846;28;20528;-66
2022/11/14 05:35:43;;;;;;;;;;;;;;;;;;4978239;28;20011;-63
2022/11/14 05:38:11;;;;;;;;;;;;;;;;;;4963348;28;20381;-63
2022/11/14 05:40:39;;;;;;;;;;;;;;;;;;4967781;28;19929;-64
2022/11/14 05:43:07;;;;;;;;;;;;;;;;;;4981779;28;19945;-66
2022/11/14 05:45:33;;;;;;;;;;;;;;;;;;4982292;28;19921;-65
2022/11/14 05:48:00;;;;;;;;;;;;;;;;;;4963723;28;19998;-64
2022/11/14 05:50:26;;;;;;;;;;;;;;;;;;4954576;28;19921;-64
2022/11/14 05:52:51;;;;;;;;;;;;;;;;;;4963905;28;20336;-63
2022/11/14 05:55:18;;;;;;;;;;;;;;;;;;4979203;28;20435;-63
2022/11/14 05:57:44;;;;;;;;;;;;;;;;;;4971461;28;19917;-62
2022/11/14 06:00:14;;;;;;;;;;;;;;;;;;4978254;28;19921;-64
2022/11/14 06:02:44;;;;;;;;;;;;;;;;;;4982227;28;19925;-63
2022/11/14 06:05:10;;;;;;;;;;;;;;;;;;4950754;28;19929;-63
2022/11/14 06:07:35;;;;;;;;;;;;;;;;;;4966351;28;20176;-63
2022/11/14 06:10:01;;;;;;;;;;;;;;;;;;4964120;28;19921;-67
2022/11/14 06:15:43;;;;;;;;;;;;;;;;;;4981807;28;19937;-66
2022/11/14 06:18:10;;;;;;;;;;;;;;;;;;4980570;28;20650;-65
2022/11/14 06:20:36;;;;;;;;;;;;;;;;;;4967174;28;20040;-68
2022/11/14 06:23:02;;;;;;;;;;;;;;;;;;4958918;28;20298;-67
2022/11/14 06:25:27;;;;;;;;;;;;;;;;;;4981862;28;20536;-65
2022/11/14 06:27:54;;;;;;;;;;;;;;;;;;4981314;28;20003;-65
2022/11/14 06:30:20;;;;;;;;;;;;;;;;;;4977703;28;20317;-64
2022/11/14 06:32:45;;;;;;;;;;;;;;;;;;4953920;28;20679;-65
2022/11/14 06:35:13;;;;;;;;;;;;;;;;;;4962101;28;19948;-65
2022/11/14 06:37:38;;;;;;;;;;;;;;;;;;4980476;28;19983;-65
2022/11/14 06:40:04;;;;;;;;;;;;;;;;;;4961619;28;19922;-66
2022/11/14 06:42:29;;;;;;;;;;;;;;;;;;4965172;28;19953;-64
2022/11/14 06:44:54;;;;;;;;;;;;;;;;;;4981346;28;21884;-64
2022/11/14 06:47:22;;;;;;;;;;;;;;;;;;4965915;28;19929;-63
2022/11/14 06:49:47;;;;;;;;;;;;;;;;;;4963908;28;19934;-65
2022/11/14 06:52:13;;;;;;;;;;;;;;;;;;4975233;28;20294;-63
2022/11/14 06:54:38;;;;;;;;;;;;;;;;;;4961984;28;19999;-68
2022/11/14 06:57:03;;;;;;;;;;;;;;;;;;4962739;28;19928;-64
2022/11/14 06:59:28;;;;;;;;;;;;;;;;;;4960672;28;19949;-68
2022/11/14 07:01:54;;;;;;;;;;;;;;;;;;4979861;28;19922;-62
2022/11/14 07:04:22;;;;;;;;;;;;;;;;;;4964392;28;20572;-63
2022/11/14 07:06:49;;;;;;;;;;;;;;;;;;4980122;28;19925;-64
2022/11/14 07:09:15;;;;;;;;;;;;;;;;;;4979037;28;20001;-68
2022/11/14 07:11:40;;;;;;;;;;;;;;;;;;4967499;28;19921;-62
2022/11/14 07:14:06;;;;;;;;;;;;;;;;;;4977748;28;19926;-63
2022/11/14 07:16:34;;;;;;;;;;;;;;;;;;4967409;28;20453;-63
2022/11/14 07:18:59;;;;;;;;;;;;;;;;;;4962180;28;19929;-65
2022/11/14 07:21:24;;;;;;;;;;;;;;;;;;4979656;28;20377;-64
2022/11/14 07:23:50;;;;;;;;;;;;;;;;;;4977022;28;20174;-64
2022/11/14 07:26:15;;;;;;;;;;;;;;;;;;4979673;28;19918;-62
2022/11/14 07:28:40;;;;;;;;;;;;;;;;;;4975168;28;20448;-63
2022/11/14 07:31:08;;;;;;;;;;;;;;;;;;4977254;28;20016;-63
2022/11/14 07:33:33;;;;;;;;;;;;;;;;;;4976527;28;19928;-66
2022/11/14 07:35:58;;;;;;;;;;;;;;;;;;4976725;28;19948;-64
2022/11/14 07:38:24;;;;;;;;;;;;;;;;;;4977493;28;19965;-64
2022/11/14 07:40:51;;;;;;;;;;;;;;;;;;4960846;28;19955;-64
2022/11/14 07:43:21;;;;;;;;;;;;;;;;;;4978459;28;19932;-64
2022/11/14 07:45:46;;;;;;;;;;;;;;;;;;4969827;28;19957;-65
2022/11/14 07:48:15;;;;;;;;;;;;;;;;;;4978729;28;20624;-64
2022/11/14 07:50:40;;;;;;;;;;;;;;;;;;4978700;28;20333;-66
2022/11/14 07:53:08;;;;;;;;;;;;;;;;;;4963687;28;20016;-63
2022/11/14 07:55:33;;;;;;;;;;;;;;;;;;4977569;28;20080;-63
2022/11/14 07:57:58;;;;;;;;;;;;;;;;;;4960864;28;19940;-67
2022/11/14 08:00:24;;;;;;;;;;;;;;;;;;4949916;28;20446;-64
2022/11/14 08:02:49;;;;;;;;;;;;;;;;;;4961718;28;20716;-64
2022/11/14 08:05:20;;;;;;;;;;;;;;;;;;4979344;28;20012;-64
2022/11/14 08:07:47;;;;;;;;;;;;;;;;;;4979276;28;20243;-64
2022/11/14 08:10:13;;;;;;;;;;;;;;;;;;4966786;28;20364;-62
2022/11/14 08:12:40;;;;;;;;;;;;;;;;;;4958623;28;19927;-63
2022/11/14 08:15:05;;;;;;;;;;;;;;;;;;4960277;28;20403;-63
2022/11/14 08:17:31;;;;;;;;;;;;;;;;;;4966406;28;19921;-65
2022/11/14 08:19:57;;;;;;;;;;;;;;;;;;4978358;28;19922;-64
2022/11/14 08:22:22;;;;;;;;;;;;;;;;;;4977316;28;20219;-67
2022/11/14 08:24:48;;;;;;;;;;;;;;;;;;4959991;28;19952;-68
2022/11/14 08:27:13;;;;;;;;;;;;;;;;;;4975600;28;19968;-65
2022/11/14 08:29:38;;;;;;;;;;;;;;;;;;4985074;28;19918;-63
2022/11/14 08:32:06;;;;;;;;;;;;;;;;;;4970983;28;20556;-65
2022/11/14 08:34:32;;;;;;;;;;;;;;;;;;4983398;28;19925;-64
2022/11/14 08:36:59;;;;;;;;;;;;;;;;;;4985414;28;19956;-65
2022/11/14 08:39:28;;;;;;;;;;;;;;;;;;4983593;28;21523;-62
2022/11/14 08:41:53;;;;;;;;;;;;;;;;;;4985134;28;19956;-67
2022/11/14 08:44:22;;;;;;;;;;;;;;;;;;4982096;28;19922;-65
2022/11/14 08:46:47;;;;;;;;;;;;;;;;;;4986277;28;19926;-63
2022/11/14 08:49:12;;;;;;;;;;;;;;;;;;4984383;28;19924;-66
2022/11/14 08:51:38;;;;;;;;;;;;;;;;;;4972148;28;19976;-61
2022/11/14 08:54:04;;;;;;;;;;;;;;;;;;4985217;28;19918;-63
2022/11/14 08:56:29;;;;;;;;;;;;;;;;;;4957015;28;20550;-64
2022/11/14 08:58:54;;;;;;;;;;;;;;;;;;4966919;28;19924;-64
2022/11/14 09:01:22;;;;;;;;;;;;;;;;;;4967282;28;19975;-63
2022/11/14 09:03:48;;;;;;;;;;;;;;;;;;4963867;28;19964;-63
2022/11/14 09:06:13;;;;;;;;;;;;;;;;;;4966319;28;20444;-63
2022/11/14 09:08:39;;;;;;;;;;;;;;;;;;4984369;28;20031;-65
2022/11/14 09:11:07;;;;;;;;;;;;;;;;;;4983761;28;19925;-64
2022/11/14 09:13:32;;;;;;;;;;;;;;;;;;4975727;28;20028;-66
2022/11/14 09:15:58;;;;;;;;;;;;;;;;;;4984077;28;19930;-65
2022/11/14 09:18:25;;;;;;;;;;;;;;;;;;4966804;28;19921;-63
2022/11/14 09:20:53;;;;;;;;;;;;;;;;;;4985591;28;19960;-62
2022/11/14 09:23:21;;;;;;;;;;;;;;;;;;4985192;28;21356;-64
2022/11/14 09:25:46;;;;;;;;;;;;;;;;;;4966796;28;19926;-65
2022/11/14 09:28:14;;;;;;;;;;;;;;;;;;4968230;28;19968;-63
2022/11/14 09:30:42;;;;;;;;;;;;;;;;;;4986523;28;19925;-64
2022/11/14 09:33:08;;;;;;;;;;;;;;;;;;4984242;28;19918;-62
2022/11/14 09:35:36;;;;;;;;;;;;;;;;;;4984347;28;19921;-64
2022/11/14 09:38:02;;;;;;;;;;;;;;;;;;4983080;28;20417;-62
2022/11/14 09:40:28;;;;;;;;;;;;;;;;;;4978417;28;19929;-62
2022/11/14 09:42:53;;;;;;;;;;;;;;;;;;4977878;28;19928;-66
2022/11/14 09:45:21;;;;;;;;;;;;;;;;;;4982825;28;19948;-63
2022/11/14 09:47:48;;;;;;;;;;;;;;;;;;4981379;28;19922;-62
2022/11/14 09:50:13;;;;;;;;;;;;;;;;;;4963696;28;19925;-63
2022/11/14 09:52:38;;;;;;;;;;;;;;;;;;4980835;28;19960;-63
2022/11/14 09:55:04;;;;;;;;;;;;;;;;;;4965644;28;19952;-63
2022/11/14 09:57:29;;;;;;;;;;;;;;;;;;4980851;28;20020;-63
2022/11/14 09:59:57;;;;;;;;;;;;;;;;;;4979781;28;19924;-62
2022/11/14 10:02:25;;;;;;;;;;;;;;;;;;4979082;28;19922;-63
2022/11/14 10:04:52;;;;;;;;;;;;;;;;;;4963615;28;20339;-62
2022/11/14 10:07:18;;;;;;;;;;;;;;;;;;4980725;28;20018;-64
2022/11/14 10:09:43;;;;;;;;;;;;;;;;;;4968981;28;20387;-64
2022/11/14 10:12:11;;;;;;;;;;;;;;;;;;4965554;28;20012;-64
2022/11/14 10:14:37;;;;;;;;;;;;;;;;;;4980310;28;20377;-63
2022/11/14 10:17:05;;;;;;;;;;;;;;;;;;4966919;28;19989;-63
2022/11/14 10:19:31;;;;;;;;;;;;;;;;;;4980141;28;20169;-63
2022/11/14 10:21:57;;;;;;;;;;;;;;;;;;4981396;28;20679;-63
2022/11/14 10:24:22;;;;;;;;;;;;;;;;;;4950068;28;19934;-65
2022/11/14 10:26:50;;;;;;;;;;;;;;;;;;4952712;28;19961;-63
2022/11/14 10:29:15;;;;;;;;;;;;;;;;;;4968962;28;20239;-64
2022/11/14 10:31:40;;;;;;;;;;;;;;;;;;4982917;28;20527;-67
2022/11/14 10:34:07;;;;;;;;;;;;;;;;;;4968782;28;19974;-62
2022/11/14 10:36:33;;;;;;;;;;;;;;;;;;4980470;28;20007;-65
2022/11/14 10:38:58;;;;;;;;;;;;;;;;;;4968226;28;19952;-66
2022/11/14 10:41:24;;;;;;;;;;;;;;;;;;4980268;28;20546;-66
2022/11/14 10:43:50;;;;;;;;;;;;;;;;;;4960906;28;19925;-63
2022/11/14 10:46:20;;;;;;;;;;;;;;;;;;4980898;28;20413;-63
2022/11/14 10:48:48;;;;;;;;;;;;;;;;;;4980617;28;20289;-64
2022/11/14 10:51:13;;;;;;;;;;;;;;;;;;4964977;28;19925;-65
2022/11/14 10:53:39;;;;;;;;;;;;;;;;;;4977212;28;22154;-63
2022/11/14 10:56:05;;;;;;;;;;;;;;;;;;4979354;28;20329;-63
2022/11/14 10:58:30;;;;;;;;;;;;;;;;;;4980796;28;20084;-64
2022/11/14 11:00:55;;;;;;;;;;;;;;;;;;4979650;28;20279;-64
2022/11/14 11:03:23;;;;;;;;;;;;;;;;;;4967674;28;20882;-68
2022/11/14 11:05:49;;;;;;;;;;;;;;;;;;4953358;28;19932;-65
2022/11/14 11:13:43;;;;;;;;;;;;;;;;;;4962477;28;19928;-65
2022/11/14 11:16:11;;;;;;;;;;;;;;;;;;4978370;28;19918;-63
2022/11/14 11:18:39;;;;;;;;;;;;;;;;;;4979879;28;19964;-62
2022/11/14 11:21:05;;;;;;;;;;;;;;;;;;4979853;28;20044;-65
2022/11/14 11:23:31;;;;;;;;;;;;;;;;;;4978523;28;20553;-63
2022/11/14 11:25:57;;;;;;;;;;;;;;;;;;4979660;28;19980;-63
2022/11/14 11:28:22;;;;;;;;;;;;;;;;;;4976250;28;21279;-65
2022/11/14 11:30:50;;;;;;;;;;;;;;;;;;4977954;28;19953;-63
2022/11/14 11:33:18;;;;;;;;;;;;;;;;;;4960037;28;20325;-63
2022/11/14 11:35:45;;;;;;;;;;;;;;;;;;4963791;28;20396;-63
2022/11/14 11:38:11;;;;;;;;;;;;;;;;;;4978221;28;20447;-64
2022/11/14 11:40:40;;;;;;;;;;;;;;;;;;4980680;28;21882;-62
2022/11/14 11:43:05;;;;;;;;;;;;;;;;;;4976980;28;20078;-61
2022/11/14 11:45:33;;;;;;;;;;;;;;;;;;4979008;28;19925;-63
2022/11/14 11:48:01;;;;;;;;;;;;;;;;;;4964276;28;19987;-63
2022/11/14 11:50:26;;;;;;;;;;;;;;;;;;4976857;28;19918;-61
2022/11/14 11:52:52;;;;;;;;;;;;;;;;;;4979421;28;20393;-62
2022/11/14 11:55:17;;;;;;;;;;;;;;;;;;4976872;28;19929;-65
2022/11/14 11:57:42;;;;;;;;;;;;;;;;;;4979070;28;20016;-62
2022/11/14 12:00:08;;;;;;;;;;;;;;;;;;4963879;28;19936;-62
2022/11/14 12:02:33;;;;;;;;;;;;;;;;;;4975192;28;20040;-62
2022/11/14 12:04:59;;;;;;;;;;;;;;;;;;4977243;28;19921;-63
2022/11/14 12:07:24;;;;;;;;;;;;;;;;;;4965493;28;19929;-63
2022/11/14 12:09:52;;;;;;;;;;;;;;;;;;4979887;28;19934;-64
2022/11/14 12:12:18;;;;;;;;;;;;;;;;;;4961705;28;21518;-63
2022/11/14 12:14:43;;;;;;;;;;;;;;;;;;4978633;28;20326;-66
2022/11/14 12:17:09;;;;;;;;;;;;;;;;;;4976067;28;19928;-65
2022/11/14 12:19:34;;;;;;;;;;;;;;;;;;4976961;28;20047;-66
2022/11/14 12:21:59;;;;;;;;;;;;;;;;;;4963459;28;20324;-63
2022/11/14 12:24:25;;;;;;;;;;;;;;;;;;4979116;28;19925;-63
2022/11/14 12:26:50;;;;;;;;;;;;;;;;;;4960730;28;20044;-67
2022/11/14 12:29:15;;;;;;;;;;;;;;;;;;4961093;28;19921;-62
2022/11/14 12:31:43;;;;;;;;;;;;;;;;;;4978551;28;19932;-64
2022/11/14 12:34:14;;;;;;;;;;;;;;;;;;4979914;28;20400;-64
2022/11/14 12:36:43;;;;;;;;;;;;;;;;;;4978962;28;19922;-67
2022/11/14 12:39:08;;;;;;;;;;;;;;;;;;4960832;28;19922;-68
2022/11/14 12:41:33;;;;;;;;;;;;;;;;;;4960345;28;19921;-63
2022/11/14 12:44:01;;;;;;;;;;;;;;;;;;4976870;28;20286;-64
2022/11/14 12:46:27;;;;;;;;;;;;;;;;;;4958864;28;19929;-66
2022/11/14 12:48:52;;;;;;;;;;;;;;;;;;4964969;28;19917;-65
2022/11/14 12:51:17;;;;;;;;;;;;;;;;;;4977778;28;20332;-63
2022/11/14 12:53:45;;;;;;;;;;;;;;;;;;4962430;28;20370;-65
2022/11/14 12:56:10;;;;;;;;;;;;;;;;;;4973116;28;19928;-63
2022/11/14 12:58:36;;;;;;;;;;;;;;;;;;4977075;28;19922;-69
2022/11/14 13:01:02;;;;;;;;;;;;;;;;;;4979404;28;19965;-66
2022/11/14 13:03:27;;;;;;;;;;;;;;;;;;4977443;28;20534;-62
2022/11/14 13:05:55;;;;;;;;;;;;;;;;;;4978874;28;19918;-63
2022/11/14 13:08:21;;;;;;;;;;;;;;;;;;4978441;28;20666;-64
2022/11/14 13:10:47;;;;;;;;;;;;;;;;;;4965419;28;19921;-66
2022/11/14 13:21:48;;;;;;;;;;;;;;;;;;4982137;28;20380;-65
2022/11/14 13:24:15;;;;;;;;;;;;;;;;;;4966922;28;19925;-61
2022/11/14 13:26:42;;;;;;;;;;;;;;;;;;4981079;28;20084;-63
2022/11/14 13:29:08;;;;;;;;;;;;;;;;;;4964024;28;20348;-63
2022/11/14 13:31:33;;;;;;;;;;;;;;;;;;4956145;28;19921;-64
2022/11/14 13:34:00;;;;;;;;;;;;;;;;;;4981262;28;20339;-62
2022/11/14 13:36:28;;;;;;;;;;;;;;;;;;4981730;28;19974;-65
2022/11/14 13:38:56;;;;;;;;;;;;;;;;;;4981059;28;21339;-65
2022/11/14 13:41:21;;;;;;;;;;;;;;;;;;4980041;28;20356;-64
2022/11/14 13:43:47;;;;;;;;;;;;;;;;;;4968259;28;19936;-67
2022/11/14 13:46:13;;;;;;;;;;;;;;;;;;4962999;28;19917;-64
2022/11/14 13:48:38;;;;;;;;;;;;;;;;;;4962051;28;19925;-63
2022/11/14 13:51:03;;;;;;;;;;;;;;;;;;4979866;28;19921;-62
2022/11/14 13:53:29;;;;;;;;;;;;;;;;;;4978394;28;20412;-63
2022/11/14 13:55:57;;;;;;;;;;;;;;;;;;4981732;28;19920;-62
2022/11/14 13:58:22;;;;;;;;;;;;;;;;;;4979059;28;19990;-66
2022/11/14 14:00:50;;;;;;;;;;;;;;;;;;4981646;28;19980;-65
2022/11/14 14:03:15;;;;;;;;;;;;;;;;;;4975351;28;20073;-65
2022/11/14 14:05:41;;;;;;;;;;;;;;;;;;4979481;28;20023;-63
2022/11/14 14:08:09;;;;;;;;;;;;;;;;;;4963860;28;19917;-62
2022/11/14 14:10:34;;;;;;;;;;;;;;;;;;4953385;28;19917;-63
2022/11/14 14:13:00;;;;;;;;;;;;;;;;;;4965090;28;20019;-62
2022/11/14 14:15:25;;;;;;;;;;;;;;;;;;4979967;28;19957;-60
2022/11/14 14:17:52;;;;;;;;;;;;;;;;;;4977565;28;19925;-60
2022/11/14 14:20:20;;;;;;;;;;;;;;;;;;4963978;28;20281;-61
2022/11/14 14:22:50;;;;;;;;;;;;;;;;;;4980669;28;19975;-61
2022/11/14 14:25:16;;;;;;;;;;;;;;;;;;4964132;28;19957;-62
2022/11/14 14:27:41;;;;;;;;;;;;;;;;;;4979231;28;20021;-63
2022/11/14 14:30:12;;;;;;;;;;;;;;;;;;4979575;28;19922;-62
2022/11/14 14:32:37;;;;;;;;;;;;;;;;;;4964289;28;20382;-63
2022/11/14 14:35:05;;;;;;;;;;;;;;;;;;4962122;28;20004;-63
2022/11/14 14:37:31;;;;;;;;;;;;;;;;;;4979792;28;19924;-62
2022/11/14 14:39:59;;;;;;;;;;;;;;;;;;4981640;28;19953;-62
2022/11/14 14:42:24;;;;;;;;;;;;;;;;;;4964153;28;20008;-62
2022/11/14 14:44:50;;;;;;;;;;;;;;;;;;4980523;28;19931;-62
2022/11/14 14:47:16;;;;;;;;;;;;;;;;;;4977967;28;20134;-62
2022/11/14 14:49:41;;;;;;;;;;;;;;;;;;4977669;28;19921;-63
2022/11/14 14:52:06;;;;;;;;;;;;;;;;;;4963392;28;19922;-63
2022/11/14 14:54:31;;;;;;;;;;;;;;;;;;4980140;28;19917;-62
2022/11/14 14:56:59;;;;;;;;;;;;;;;;;;4981845;28;19975;-65
2022/11/14 14:59:24;;;;;;;;;;;;;;;;;;4978772;28;20566;-63
2022/11/14 15:01:50;;;;;;;;;;;;;;;;;;4980407;28;19971;-63
2022/11/14 15:04:18;;;;;;;;;;;;;;;;;;4978234;28;20450;-64
2022/11/14 15:06:44;;;;;;;;;;;;;;;;;;4980573;28;20033;-63
2022/11/14 15:09:11;;;;;;;;;;;;;;;;;;4964932;28;20509;-62
2022/11/14 15:11:39;;;;;;;;;;;;;;;;;;4966299;28;19980;-63
2022/11/14 15:14:04;;;;;;;;;;;;;;;;;;4980355;28;19929;-63
2022/11/14 15:16:30;;;;;;;;;;;;;;;;;;4980092;28;20348;-63
2022/11/14 15:18:55;;;;;;;;;;;;;;;;;;4965622;28;19961;-63
2022/11/14 15:21:26;;;;;;;;;;;;;;;;;;4981546;28;19921;-62
2022/11/14 15:23:53;;;;;;;;;;;;;;;;;;4980001;28;19921;-62
2022/11/14 15:26:19;;;;;;;;;;;;;;;;;;4978317;28;19963;-65
2022/11/14 15:28:45;;;;;;;;;;;;;;;;;;4977954;28;19995;-66
2022/11/14 15:31:11;;;;;;;;;;;;;;;;;;4977781;28;19947;-64
2022/11/14 15:33:37;;;;;;;;;;;;;;;;;;4980214;28;19953;-64
2022/11/14 15:36:06;;;;;;;;;;;;;;;;;;4978212;28;19917;-64
2022/11/14 15:38:32;;;;;;;;;;;;;;;;;;4979603;28;20509;-63
2022/11/14 15:40:57;;;;;;;;;;;;;;;;;;4961493;28;20159;-63
2022/11/14 15:43:23;;;;;;;;;;;;;;;;;;4979425;28;19931;-62
2022/11/14 15:45:48;;;;;;;;;;;;;;;;;;4979690;28;20407;-66
2022/11/14 15:48:14;;;;;;;;;;;;;;;;;;4962095;28;19925;-64
2022/11/14 15:50:42;;;;;;;;;;;;;;;;;;4976869;28;19963;-63
2022/11/14 15:53:09;;;;;;;;;;;;;;;;;;4979346;28;19922;-63
2022/11/14 15:55:37;;;;;;;;;;;;;;;;;;4962854;28;19956;-63
2022/11/14 15:58:02;;;;;;;;;;;;;;;;;;4964157;28;19917;-63
2022/11/14 16:00:30;;;;;;;;;;;;;;;;;;4969065;28;20004;-63
2022/11/14 16:02:55;;;;;;;;;;;;;;;;;;4974928;28;20036;-62
2022/11/14 16:05:20;;;;;;;;;;;;;;;;;;4978083;28;19925;-62
2022/11/14 16:07:47;;;;;;;;;;;;;;;;;;4978466;28;19921;-62
2022/11/14 16:10:12;;;;;;;;;;;;;;;;;;4978197;28;19926;-63
2022/11/14 16:12:39;;;;;;;;;;;;;;;;;;4980592;28;19929;-62
2022/11/14 16:15:07;;;;;;;;;;;;;;;;;;4956623;28;19937;-61
2022/11/14 16:17:33;;;;;;;;;;;;;;;;;;4979506;28;19917;-62
2022/11/14 16:20:01;;;;;;;;;;;;;;;;;;4959229;28;19925;-62
2022/11/14 16:22:26;;;;;;;;;;;;;;;;;;4961168;28;19925;-62
2022/11/14 16:24:52;;;;;;;;;;;;;;;;;;4960850;28;20007;-61
2022/11/14 16:27:17;;;;;;;;;;;;;;;;;;4976387;28;19925;-62
2022/11/14 16:29:48;;;;;;;;;;;;;;;;;;4976512;28;19924;-61
2022/11/14 16:32:14;;;;;;;;;;;;;;;;;;4979400;28;19952;-61
2022/11/14 16:34:39;;;;;;;;;;;;;;;;;;4950667;28;20368;-62
2022/11/14 16:37:04;;;;;;;;;;;;;;;;;;4981346;28;19961;-61
2022/11/14 16:39:29;;;;;;;;;;;;;;;;;;4961476;28;19972;-63
2022/11/14 16:41:55;;;;;;;;;;;;;;;;;;4978770;28;20004;-63
2022/11/14 16:44:24;;;;;;;;;;;;;;;;;;4975582;28;20090;-62
2022/11/14 16:46:50;;;;;;;;;;;;;;;;;;4946917;28;19979;-63
2022/11/14 16:49:15;;;;;;;;;;;;;;;;;;4961256;28;19917;-63
2022/11/14 16:51:42;;;;;;;;;;;;;;;;;;4980919;28;20415;-62
2022/11/14 16:54:08;;;;;;;;;;;;;;;;;;4966190;28;19930;-63
2022/11/14 16:56:35;;;;;;;;;;;;;;;;;;4978893;28;19917;-63
2022/11/14 16:59:01;;;;;;;;;;;;;;;;;;4980400;28;19925;-63
2022/11/14 17:01:26;;;;;;;;;;;;;;;;;;4967118;28;20262;-62